Saint Ignace, MI

9:39 AM EST on February 08, 2016 (GMT -0500)
MesoWest | | Change Station
CLOSE
Current Station
Personal Weather Station
Location: Saint Ignace, MI
Elevation: 603 ft
Nearby Weather Stations

Elev 603 ft 45.90 °N, 84.74 °W | Updated 49 minutes ago

Mostly Cloudy
Mostly Cloudy
36 °F
Feels Like 36 °F
N
1
Wind Variable Wind from North
Gusts 2.0 mph

Today
High -- | Low -- °F
--% Chance of Precip.
Yesterday
High -- | Low -- °F
Precip. -- in
Pressure 29.59 in
Visibility 0.5 miles
Clouds Mostly Cloudy 4800 ft
Windchill 36 °F
Dew Point 36 °F
Humidity 99%
Rainfall in
Snow Depth Not available.
7:52 AM 5:54 PM
Waning Crescent, 0% visible
METAR KMCD 081437Z AUTO 20003KT 1/2SM FZFG BKN048 M01/M01 A2959 RMK AO2 T10121012
Pressure 29.59 in
Visibility 0.5 miles
Clouds Mostly Cloudy 4800 ft
Windchill 36 °F
Dew Point 36 °F
Humidity 99%
Rainfall in
Snow Depth Not available.
7:52 AM 5:54 PM
Waning Crescent, 0% visible
METAR KMCD 081437Z AUTO 20003KT 1/2SM FZFG BKN048 M01/M01 A2959 RMK AO2 T10121012

10-Day Weather Forecast

Almanac

Astronomy

Feb. 08, 2016 Rise Set
Actual Time
Civil Twilight
Nautical Twilight
Astronomical Twilight
Moon
Length of Visible Light
Length of Day
Tomorrow will be .
, % of the Moon is Illuminated

Today's Extremes

State Highs State Lows

Community

WunderPhotos

Upload Photos

1,891,437 photos uploaded!

WunderBlog® & News

Nearby

Air Quality

  Air Quality AQ Index Pollutant
Not available.

Snow Depth

Station Depth Elevation

Earthquake Activity

City Distance Mag. Time & Date
Minimum magnitude displayed is 2.5.

Coastal Water Temperatures

Place Temperature

Stations

Nearby Weather Stations

Station Location Temp. Windchill Dew Point Humidity Wind Precip. Elev Updated Type
                   

Watches & Warnings

There are currently no watches in effect.